sensor_id;sensor_type;location;lat;lon;timestamp;P1;P2;P0
46681;PMS5003;34101;53.430;-2.224;2024-03-08T00:00:08;25;22;
46681;PMS5003;34101;53.430;-2.224;2024-03-08T00:02:36;26;25;
46681;PMS5003;34101;53.430;-2.224;2024-03-08T00:05:03;34;33;
46681;PMS5003;34101;53.430;-2.224;2024-03-08T00:07:31;22;22;
46681;PMS5003;34101;53.430;-2.224;2024-03-08T00:09:58;24;20;
46681;PMS5003;34101;53.430;-2.224;2024-03-08T00:12:26;26;24;
46681;PMS5003;34101;53.430;-2.224;2024-03-08T00:14:53;23;23;
46681;PMS5003;34101;53.430;-2.224;2024-03-08T00:17:21;25;23;
46681;PMS5003;34101;53.430;-2.224;2024-03-08T00:19:48;29;24;
46681;PMS5003;34101;53.430;-2.224;2024-03-08T00:22:15;33;29;
46681;PMS5003;34101;53.430;-2.224;2024-03-08T00:24:43;29;29;
46681;PMS5003;34101;53.430;-2.224;2024-03-08T00:27:11;21;21;
46681;PMS5003;34101;53.430;-2.224;2024-03-08T00:29:38;30;28;
46681;PMS5003;34101;53.430;-2.224;2024-03-08T00:32:05;26;26;
46681;PMS5003;34101;53.430;-2.224;2024-03-08T00:34:32;28;25;
46681;PMS5003;34101;53.430;-2.224;2024-03-08T00:37:02;29;26;
46681;PMS5003;34101;53.430;-2.224;2024-03-08T00:39:29;24;23;
46681;PMS5003;34101;53.430;-2.224;2024-03-08T00:41:56;32;28;
46681;PMS5003;34101;53.430;-2.224;2024-03-08T00:44:23;27;24;
46681;PMS5003;34101;53.430;-2.224;2024-03-08T00:46:50;26;24;
46681;PMS5003;34101;53.430;-2.224;2024-03-08T00:49:17;32;29;
46681;PMS5003;34101;53.430;-2.224;2024-03-08T00:51:44;32;30;
46681;PMS5003;34101;53.430;-2.224;2024-03-08T00:54:11;26;24;
46681;PMS5003;34101;53.430;-2.224;2024-03-08T00:56:38;36;36;
46681;PMS5003;34101;53.430;-2.224;2024-03-08T00:59:06;28;27;
46681;PMS5003;34101;53.430;-2.224;2024-03-08T01:01:34;34;29;
46681;PMS5003;34101;53.430;-2.224;2024-03-08T01:04:01;37;34;
46681;PMS5003;34101;53.430;-2.224;2024-03-08T01:06:28;37;34;
46681;PMS5003;34101;53.430;-2.224;2024-03-08T01:08:56;30;28;
46681;PMS5003;34101;53.430;-2.224;2024-03-08T01:11:23;39;39;
46681;PMS5003;34101;53.430;-2.224;2024-03-08T01:13:50;35;34;
46681;PMS5003;34101;53.430;-2.224;2024-03-08T01:16:18;33;30;
46681;PMS5003;34101;53.430;-2.224;2024-03-08T01:18:45;42;38;
46681;PMS5003;34101;53.430;-2.224;2024-03-08T01:21:13;32;30;
46681;PMS5003;34101;53.430;-2.224;2024-03-08T01:23:40;37;30;
46681;PMS5003;34101;53.430;-2.224;2024-03-08T01:26:08;37;37;
46681;PMS5003;34101;53.430;-2.224;2024-03-08T01:28:35;33;33;
46681;PMS5003;34101;53.430;-2.224;2024-03-08T01:31:02;34;32;
46681;PMS5003;34101;53.430;-2.224;2024-03-08T01:33:29;36;33;
46681;PMS5003;34101;53.430;-2.224;2024-03-08T01:35:57;34;33;
46681;PMS5003;34101;53.430;-2.224;2024-03-08T01:38:25;41;38;
46681;PMS5003;34101;53.430;-2.224;2024-03-08T01:40:52;34;31;
46681;PMS5003;34101;53.430;-2.224;2024-03-08T01:43:20;31;31;
46681;PMS5003;34101;53.430;-2.224;2024-03-08T01:45:49;38;33;
46681;PMS5003;34101;53.430;-2.224;2024-03-08T01:48:16;33;31;
46681;PMS5003;34101;53.430;-2.224;2024-03-08T01:50:45;32;30;
46681;PMS5003;34101;53.430;-2.224;2024-03-08T01:53:13;43;36;
46681;PMS5003;34101;53.430;-2.224;2024-03-08T01:55:41;43;40;
46681;PMS5003;34101;53.430;-2.224;2024-03-08T01:58:10;37;33;
46681;PMS5003;34101;53.430;-2.224;2024-03-08T02:00:39;40;38;
46681;PMS5003;34101;53.430;-2.224;2024-03-08T02:03:08;38;34;
46681;PMS5003;34101;53.430;-2.224;2024-03-08T02:05:35;39;39;
46681;PMS5003;34101;53.430;-2.224;2024-03-08T02:08:03;32;30;
46681;PMS5003;34101;53.430;-2.224;2024-03-08T02:10:33;36;35;
46681;PMS5003;34101;53.430;-2.224;2024-03-08T02:13:01;44;37;
46681;PMS5003;34101;53.430;-2.224;2024-03-08T02:15:44;39;37;
46681;PMS5003;34101;53.430;-2.224;2024-03-08T02:18:16;36;28;
46681;PMS5003;34101;53.430;-2.224;2024-03-08T02:20:43;42;37;
46681;PMS5003;34101;53.430;-2.224;2024-03-08T02:23:12;28;28;
46681;PMS5003;34101;53.430;-2.224;2024-03-08T02:25:39;40;39;
46681;PMS5003;34101;53.430;-2.224;2024-03-08T02:28:07;45;45;
46681;PMS5003;34101;53.430;-2.224;2024-03-08T02:30:37;38;37;
46681;PMS5003;34101;53.430;-2.224;2024-03-08T02:33:04;33;31;
46681;PMS5003;34101;53.430;-2.224;2024-03-08T02:35:32;33;32;
46681;PMS5003;34101;53.430;-2.224;2024-03-08T02:37:59;41;35;
46681;PMS5003;34101;53.430;-2.224;2024-03-08T02:40:26;35;34;
46681;PMS5003;34101;53.430;-2.224;2024-03-08T02:42:54;42;40;
46681;PMS5003;34101;53.430;-2.224;2024-03-08T02:45:22;35;35;
46681;PMS5003;34101;53.430;-2.224;2024-03-08T02:47:49;47;43;
46681;PMS5003;34101;53.430;-2.224;2024-03-08T02:50:16;39;36;
46681;PMS5003;34101;53.430;-2.224;2024-03-08T02:52:44;47;46;
46681;PMS5003;34101;53.430;-2.224;2024-03-08T02:55:11;46;40;
46681;PMS5003;34101;53.430;-2.224;2024-03-08T02:57:38;45;38;
46681;PMS5003;34101;53.430;-2.224;2024-03-08T03:00:06;39;38;
46681;PMS5003;34101;53.430;-2.224;2024-03-08T03:02:34;45;38;
46681;PMS5003;34101;53.430;-2.224;2024-03-08T03:05:01;41;38;
46681;PMS5003;34101;53.430;-2.224;2024-03-08T03:07:29;40;37;
46681;PMS5003;34101;53.430;-2.224;2024-03-08T03:09:56;41;39;
46681;PMS5003;34101;53.430;-2.224;2024-03-08T03:12:23;35;35;
46681;PMS5003;34101;53.430;-2.224;2024-03-08T03:14:50;43;37;
46681;PMS5003;34101;53.430;-2.224;2024-03-08T03:17:18;39;38;
46681;PMS5003;34101;53.430;-2.224;2024-03-08T03:19:45;45;41;
46681;PMS5003;34101;53.430;-2.224;2024-03-08T03:22:13;37;37;
46681;PMS5003;34101;53.430;-2.224;2024-03-08T03:24:40;48;44;
46681;PMS5003;34101;53.430;-2.224;2024-03-08T03:27:07;40;35;
46681;PMS5003;34101;53.430;-2.224;2024-03-08T03:29:34;37;37;
46681;PMS5003;34101;53.430;-2.224;2024-03-08T03:32:01;37;37;
46681;PMS5003;34101;53.430;-2.224;2024-03-08T03:34:28;38;38;
46681;PMS5003;34101;53.430;-2.224;2024-03-08T03:36:56;35;35;
46681;PMS5003;34101;53.430;-2.224;2024-03-08T03:39:23;47;43;
46681;PMS5003;34101;53.430;-2.224;2024-03-08T03:41:50;44;38;
46681;PMS5003;34101;53.430;-2.224;2024-03-08T03:44:17;40;38;
46681;PMS5003;34101;53.430;-2.224;2024-03-08T03:46:45;42;40;
46681;PMS5003;34101;53.430;-2.224;2024-03-08T03:49:13;39;36;
46681;PMS5003;34101;53.430;-2.224;2024-03-08T03:51:39;39;37;
46681;PMS5003;34101;53.430;-2.224;2024-03-08T03:54:06;40;38;
46681;PMS5003;34101;53.430;-2.224;2024-03-08T03:56:33;48;45;
46681;PMS5003;34101;53.430;-2.224;2024-03-08T03:59:01;42;40;
46681;PMS5003;34101;53.430;-2.224;2024-03-08T04:01:28;39;36;
46681;PMS5003;34101;53.430;-2.224;2024-03-08T04:03:54;40;38;
46681;PMS5003;34101;53.430;-2.224;2024-03-08T04:06:22;40;37;
46681;PMS5003;34101;53.430;-2.224;2024-03-08T04:08:49;43;39;
46681;PMS5003;34101;53.430;-2.224;2024-03-08T04:11:16;41;39;
46681;PMS5003;34101;53.430;-2.224;2024-03-08T04:13:43;38;35;
46681;PMS5003;34101;53.430;-2.224;2024-03-08T04:16:11;42;38;
46681;PMS5003;34101;53.430;-2.224;2024-03-08T04:18:38;38;37;
46681;PMS5003;34101;53.430;-2.224;2024-03-08T04:21:05;37;33;
46681;PMS5003;34101;53.430;-2.224;2024-03-08T04:23:33;37;36;
46681;PMS5003;34101;53.430;-2.224;2024-03-08T04:26:00;42;39;
46681;PMS5003;34101;53.430;-2.224;2024-03-08T04:28:28;38;36;
46681;PMS5003;34101;53.430;-2.224;2024-03-08T04:30:55;49;44;
46681;PMS5003;34101;53.430;-2.224;2024-03-08T04:33:21;43;38;
46681;PMS5003;34101;53.430;-2.224;2024-03-08T04:35:49;38;37;
46681;PMS5003;34101;53.430;-2.224;2024-03-08T04:38:16;43;43;
46681;PMS5003;34101;53.430;-2.224;2024-03-08T04:40:43;41;38;
46681;PMS5003;34101;53.430;-2.224;2024-03-08T04:43:11;51;49;
46681;PMS5003;34101;53.430;-2.224;2024-03-08T04:45:39;44;41;
46681;PMS5003;34101;53.430;-2.224;2024-03-08T04:48:06;41;37;
46681;PMS5003;34101;53.430;-2.224;2024-03-08T04:50:34;39;39;
46681;PMS5003;34101;53.430;-2.224;2024-03-08T04:53:01;39;37;
46681;PMS5003;34101;53.430;-2.224;2024-03-08T04:55:28;44;43;
46681;PMS5003;34101;53.430;-2.224;2024-03-08T04:57:55;44;41;
46681;PMS5003;34101;53.430;-2.224;2024-03-08T05:00:24;43;38;
46681;PMS5003;34101;53.430;-2.224;2024-03-08T05:02:51;54;52;
46681;PMS5003;34101;53.430;-2.224;2024-03-08T05:05:19;35;35;
46681;PMS5003;34101;53.430;-2.224;2024-03-08T05:07:46;40;38;
46681;PMS5003;34101;53.430;-2.224;2024-03-08T05:10:13;54;47;
46681;PMS5003;34101;53.430;-2.224;2024-03-08T05:12:40;53;48;
46681;PMS5003;34101;53.430;-2.224;2024-03-08T05:15:08;47;47;
46681;PMS5003;34101;53.430;-2.224;2024-03-08T05:17:35;49;46;
46681;PMS5003;34101;53.430;-2.224;2024-03-08T05:20:03;42;39;
46681;PMS5003;34101;53.430;-2.224;2024-03-08T05:22:31;41;40;
46681;PMS5003;34101;53.430;-2.224;2024-03-08T05:24:58;39;35;
46681;PMS5003;34101;53.430;-2.224;2024-03-08T05:27:26;42;41;
46681;PMS5003;34101;53.430;-2.224;2024-03-08T05:29:53;46;42;
46681;PMS5003;34101;53.430;-2.224;2024-03-08T05:32:21;46;43;
46681;PMS5003;34101;53.430;-2.224;2024-03-08T05:34:49;42;40;
46681;PMS5003;34101;53.430;-2.224;2024-03-08T05:37:16;48;43;
46681;PMS5003;34101;53.430;-2.224;2024-03-08T05:39:43;43;37;
46681;PMS5003;34101;53.430;-2.224;2024-03-08T05:42:10;53;46;
46681;PMS5003;34101;53.430;-2.224;2024-03-08T05:44:38;52;48;
46681;PMS5003;34101;53.430;-2.224;2024-03-08T05:47:06;39;37;
46681;PMS5003;34101;53.430;-2.224;2024-03-08T05:49:33;50;44;
46681;PMS5003;34101;53.430;-2.224;2024-03-08T05:52:01;48;45;
46681;PMS5003;34101;53.430;-2.224;2024-03-08T05:54:28;43;43;
46681;PMS5003;34101;53.430;-2.224;2024-03-08T05:56:55;47;43;
46681;PMS5003;34101;53.430;-2.224;2024-03-08T05:59:22;48;47;
46681;PMS5003;34101;53.430;-2.224;2024-03-08T06:01:52;49;48;
46681;PMS5003;34101;53.430;-2.224;2024-03-08T06:04:20;41;37;
46681;PMS5003;34101;53.430;-2.224;2024-03-08T06:06:48;43;39;
46681;PMS5003;34101;53.430;-2.224;2024-03-08T06:09:15;50;47;
46681;PMS5003;34101;53.430;-2.224;2024-03-08T06:11:43;43;42;
46681;PMS5003;34101;53.430;-2.224;2024-03-08T06:14:10;48;44;
46681;PMS5003;34101;53.430;-2.224;2024-03-08T06:16:37;48;45;
46681;PMS5003;34101;53.430;-2.224;2024-03-08T06:19:05;44;39;
46681;PMS5003;34101;53.430;-2.224;2024-03-08T06:21:33;41;40;
46681;PMS5003;34101;53.430;-2.224;2024-03-08T06:24:00;50;44;
46681;PMS5003;34101;53.430;-2.224;2024-03-08T06:26:28;44;40;
46681;PMS5003;34101;53.430;-2.224;2024-03-08T06:28:55;45;42;
46681;PMS5003;34101;53.430;-2.224;2024-03-08T06:31:23;56;48;
46681;PMS5003;34101;53.430;-2.224;2024-03-08T06:33:51;41;40;
46681;PMS5003;34101;53.430;-2.224;2024-03-08T06:36:19;52;48;
46681;PMS5003;34101;53.430;-2.224;2024-03-08T06:38:47;51;50;
46681;PMS5003;34101;53.430;-2.224;2024-03-08T06:41:14;43;42;
46681;PMS5003;34101;53.430;-2.224;2024-03-08T06:43:42;41;40;
46681;PMS5003;34101;53.430;-2.224;2024-03-08T06:46:10;44;44;
46681;PMS5003;34101;53.430;-2.224;2024-03-08T06:48:37;52;47;
46681;PMS5003;34101;53.430;-2.224;2024-03-08T06:51:05;50;48;
46681;PMS5003;34101;53.430;-2.224;2024-03-08T06:53:33;62;55;
46681;PMS5003;34101;53.430;-2.224;2024-03-08T06:56:01;48;43;
46681;PMS5003;34101;53.430;-2.224;2024-03-08T06:58:29;52;47;
46681;PMS5003;34101;53.430;-2.224;2024-03-08T07:00:56;50;50;
46681;PMS5003;34101;53.430;-2.224;2024-03-08T07:03:24;47;42;
46681;PMS5003;34101;53.430;-2.224;2024-03-08T07:05:51;54;47;
46681;PMS5003;34101;53.430;-2.224;2024-03-08T07:08:19;55;48;
46681;PMS5003;34101;53.430;-2.224;2024-03-08T07:10:47;55;51;
46681;PMS5003;34101;53.430;-2.224;2024-03-08T07:13:15;47;43;
46681;PMS5003;34101;53.430;-2.224;2024-03-08T07:15:43;46;42;
46681;PMS5003;34101;53.430;-2.224;2024-03-08T07:18:10;48;46;
46681;PMS5003;34101;53.430;-2.224;2024-03-08T07:20:39;54;50;
46681;PMS5003;34101;53.430;-2.224;2024-03-08T07:23:07;54;49;
46681;PMS5003;34101;53.430;-2.224;2024-03-08T07:25:34;45;44;
46681;PMS5003;34101;53.430;-2.224;2024-03-08T07:28:01;45;42;
46681;PMS5003;34101;53.430;-2.224;2024-03-08T07:30:29;52;47;
46681;PMS5003;34101;53.430;-2.224;2024-03-08T07:32:56;52;47;
46681;PMS5003;34101;53.430;-2.224;2024-03-08T07:35:24;47;44;
46681;PMS5003;34101;53.430;-2.224;2024-03-08T07:37:52;53;53;
46681;PMS5003;34101;53.430;-2.224;2024-03-08T07:40:19;56;52;
46681;PMS5003;34101;53.430;-2.224;2024-03-08T07:42:47;57;53;
46681;PMS5003;34101;53.430;-2.224;2024-03-08T07:45:14;50;46;
46681;PMS5003;34101;53.430;-2.224;2024-03-08T07:47:42;52;48;
46681;PMS5003;34101;53.430;-2.224;2024-03-08T07:50:10;56;48;
46681;PMS5003;34101;53.430;-2.224;2024-03-08T07:52:38;48;44;
46681;PMS5003;34101;53.430;-2.224;2024-03-08T07:55:06;55;55;
46681;PMS5003;34101;53.430;-2.224;2024-03-08T07:57:35;54;50;
46681;PMS5003;34101;53.430;-2.224;2024-03-08T08:00:02;50;46;
46681;PMS5003;34101;53.430;-2.224;2024-03-08T08:02:30;60;59;
46681;PMS5003;34101;53.430;-2.224;2024-03-08T08:04:58;49;45;
46681;PMS5003;34101;53.430;-2.224;2024-03-08T08:07:25;49;44;
46681;PMS5003;34101;53.430;-2.224;2024-03-08T08:09:53;56;50;
46681;PMS5003;34101;53.430;-2.224;2024-03-08T08:12:21;55;55;
46681;PMS5003;34101;53.430;-2.224;2024-03-08T08:14:48;58;54;
46681;PMS5003;34101;53.430;-2.224;2024-03-08T08:17:16;53;49;
46681;PMS5003;34101;53.430;-2.224;2024-03-08T08:19:44;52;49;
46681;PMS5003;34101;53.430;-2.224;2024-03-08T08:22:11;44;44;
46681;PMS5003;34101;53.430;-2.224;2024-03-08T08:24:39;54;49;
46681;PMS5003;34101;53.430;-2.224;2024-03-08T08:27:06;50;47;
46681;PMS5003;34101;53.430;-2.224;2024-03-08T08:29:34;50;50;
46681;PMS5003;34101;53.430;-2.224;2024-03-08T08:32:01;50;48;
46681;PMS5003;34101;53.430;-2.224;2024-03-08T08:34:28;45;44;
46681;PMS5003;34101;53.430;-2.224;2024-03-08T08:36:55;50;48;
46681;PMS5003;34101;53.430;-2.224;2024-03-08T08:39:23;54;51;
46681;PMS5003;34101;53.430;-2.224;2024-03-08T08:41:51;55;48;
46681;PMS5003;34101;53.430;-2.224;2024-03-08T08:44:18;44;39;
46681;PMS5003;34101;53.430;-2.224;2024-03-08T08:46:45;52;48;
46681;PMS5003;34101;53.430;-2.224;2024-03-08T08:49:13;47;43;
46681;PMS5003;34101;53.430;-2.224;2024-03-08T08:51:40;50;48;
46681;PMS5003;34101;53.430;-2.224;2024-03-08T08:54:08;54;50;
46681;PMS5003;34101;53.430;-2.224;2024-03-08T08:56:35;56;48;
46681;PMS5003;34101;53.430;-2.224;2024-03-08T08:59:03;47;44;
46681;PMS5003;34101;53.430;-2.224;2024-03-08T09:01:31;50;49;
46681;PMS5003;34101;53.430;-2.224;2024-03-08T09:03:59;47;43;
46681;PMS5003;34101;53.430;-2.224;2024-03-08T09:06:26;49;44;
46681;PMS5003;34101;53.430;-2.224;2024-03-08T09:08:54;51;48;
46681;PMS5003;34101;53.430;-2.224;2024-03-08T09:11:21;56;50;
46681;PMS5003;34101;53.430;-2.224;2024-03-08T09:13:49;43;42;
46681;PMS5003;34101;53.430;-2.224;2024-03-08T09:16:16;44;43;
46681;PMS5003;34101;53.430;-2.224;2024-03-08T09:18:43;51;49;
46681;PMS5003;34101;53.430;-2.224;2024-03-08T09:21:11;60;52;
46681;PMS5003;34101;53.430;-2.224;2024-03-08T09:23:39;48;39;
46681;PMS5003;34101;53.430;-2.224;2024-03-08T09:26:06;46;42;
46681;PMS5003;34101;53.430;-2.224;2024-03-08T09:28:34;48;45;
46681;PMS5003;34101;53.430;-2.224;2024-03-08T09:31:01;45;41;
46681;PMS5003;34101;53.430;-2.224;2024-03-08T09:33:29;46;45;
46681;PMS5003;34101;53.430;-2.224;2024-03-08T09:35:57;50;48;
46681;PMS5003;34101;53.430;-2.224;2024-03-08T09:38:30;51;45;
46681;PMS5003;34101;53.430;-2.224;2024-03-08T09:40:57;49;45;
46681;PMS5003;34101;53.430;-2.224;2024-03-08T09:43:25;44;42;
46681;PMS5003;34101;53.430;-2.224;2024-03-08T09:45:52;44;44;
46681;PMS5003;34101;53.430;-2.224;2024-03-08T09:48:22;51;46;
46681;PMS5003;34101;53.430;-2.224;2024-03-08T09:50:49;44;42;
46681;PMS5003;34101;53.430;-2.224;2024-03-08T09:53:16;49;46;
46681;PMS5003;34101;53.430;-2.224;2024-03-08T09:55:44;46;46;
46681;PMS5003;34101;53.430;-2.224;2024-03-08T09:58:12;48;42;
46681;PMS5003;34101;53.430;-2.224;2024-03-08T10:00:41;44;42;
46681;PMS5003;34101;53.430;-2.224;2024-03-08T10:03:09;52;49;
46681;PMS5003;34101;53.430;-2.224;2024-03-08T10:05:36;44;42;
46681;PMS5003;34101;53.430;-2.224;2024-03-08T10:08:04;50;45;
46681;PMS5003;34101;53.430;-2.224;2024-03-08T10:10:33;40;38;
46681;PMS5003;34101;53.430;-2.224;2024-03-08T10:13:01;45;38;
46681;PMS5003;34101;53.430;-2.224;2024-03-08T10:15:29;40;37;
46681;PMS5003;34101;53.430;-2.224;2024-03-08T10:17:56;46;42;
46681;PMS5003;34101;53.430;-2.224;2024-03-08T10:20:24;45;43;
46681;PMS5003;34101;53.430;-2.224;2024-03-08T10:22:51;39;36;
46681;PMS5003;34101;53.430;-2.224;2024-03-08T10:25:19;44;43;
46681;PMS5003;34101;53.430;-2.224;2024-03-08T10:27:46;42;40;
46681;PMS5003;34101;53.430;-2.224;2024-03-08T10:30:14;39;39;
46681;PMS5003;34101;53.430;-2.224;2024-03-08T10:32:43;42;38;
46681;PMS5003;34101;53.430;-2.224;2024-03-08T10:35:10;47;46;
46681;PMS5003;34101;53.430;-2.224;2024-03-08T10:37:40;47;44;
46681;PMS5003;34101;53.430;-2.224;2024-03-08T10:40:15;41;39;
46681;PMS5003;34101;53.430;-2.224;2024-03-08T10:42:47;44;44;
46681;PMS5003;34101;53.430;-2.224;2024-03-08T10:45:23;41;38;
46681;PMS5003;34101;53.430;-2.224;2024-03-08T10:48:04;45;40;
46681;PMS5003;34101;53.430;-2.224;2024-03-08T10:50:46;41;38;
46681;PMS5003;34101;53.430;-2.224;2024-03-08T10:53:14;40;38;
46681;PMS5003;34101;53.430;-2.224;2024-03-08T10:55:42;38;37;
46681;PMS5003;34101;53.430;-2.224;2024-03-08T10:58:10;46;41;
46681;PMS5003;34101;53.430;-2.224;2024-03-08T11:00:43;40;37;
46681;PMS5003;34101;53.430;-2.224;2024-03-08T11:03:33;41;39;
46681;PMS5003;34101;53.430;-2.224;2024-03-08T11:06:13;43;39;
46681;PMS5003;34101;53.430;-2.224;2024-03-08T11:08:43;41;41;
46681;PMS5003;34101;53.430;-2.224;2024-03-08T11:11:27;42;40;
46681;PMS5003;34101;53.430;-2.224;2024-03-08T11:13:55;44;42;
46681;PMS5003;34101;53.430;-2.224;2024-03-08T11:16:40;44;41;
46681;PMS5003;34101;53.430;-2.224;2024-03-08T11:19:23;35;35;
46681;PMS5003;34101;53.430;-2.224;2024-03-08T11:22:00;40;40;
46681;PMS5003;34101;53.430;-2.224;2024-03-08T11:24:36;40;38;
46681;PMS5003;34101;53.430;-2.224;2024-03-08T11:27:05;44;39;
46681;PMS5003;34101;53.430;-2.224;2024-03-08T11:29:33;40;37;
46681;PMS5003;34101;53.430;-2.224;2024-03-08T11:32:05;46;44;
46681;PMS5003;34101;53.430;-2.224;2024-03-08T11:34:35;41;39;
46681;PMS5003;34101;53.430;-2.224;2024-03-08T11:37:04;44;42;
46681;PMS5003;34101;53.430;-2.224;2024-03-08T11:39:37;51;44;
46681;PMS5003;34101;53.430;-2.224;2024-03-08T11:42:05;40;38;
46681;PMS5003;34101;53.430;-2.224;2024-03-08T11:44:33;42;37;
46681;PMS5003;34101;53.430;-2.224;2024-03-08T11:47:01;35;34;
46681;PMS5003;34101;53.430;-2.224;2024-03-08T11:49:28;41;37;
46681;PMS5003;34101;53.430;-2.224;2024-03-08T11:51:59;37;36;
46681;PMS5003;34101;53.430;-2.224;2024-03-08T11:54:27;43;39;
46681;PMS5003;34101;53.430;-2.224;2024-03-08T11:56:54;47;43;
46681;PMS5003;34101;53.430;-2.224;2024-03-08T11:59:22;43;40;
46681;PMS5003;34101;53.430;-2.224;2024-03-08T12:01:58;36;34;
46681;PMS5003;34101;53.430;-2.224;2024-03-08T12:04:28;39;35;
46681;PMS5003;34101;53.430;-2.224;2024-03-08T12:06:55;38;38;
46681;PMS5003;34101;53.430;-2.224;2024-03-08T12:09:26;38;36;
46681;PMS5003;34101;53.430;-2.224;2024-03-08T12:11:53;38;37;
46681;PMS5003;34101;53.430;-2.224;2024-03-08T12:14:21;45;44;
46681;PMS5003;34101;53.430;-2.224;2024-03-08T12:16:50;44;39;
46681;PMS5003;34101;53.430;-2.224;2024-03-08T12:19:18;35;35;
46681;PMS5003;34101;53.430;-2.224;2024-03-08T12:21:46;43;42;
46681;PMS5003;34101;53.430;-2.224;2024-03-08T12:24:14;41;40;
46681;PMS5003;34101;53.430;-2.224;2024-03-08T12:26:43;42;36;
46681;PMS5003;34101;53.430;-2.224;2024-03-08T12:29:15;39;36;
46681;PMS5003;34101;53.430;-2.224;2024-03-08T12:31:43;37;36;
46681;PMS5003;34101;53.430;-2.224;2024-03-08T12:34:11;41;39;
46681;PMS5003;34101;53.430;-2.224;2024-03-08T12:36:43;40;40;
46681;PMS5003;34101;53.430;-2.224;2024-03-08T12:39:12;46;46;
46681;PMS5003;34101;53.430;-2.224;2024-03-08T12:41:39;42;40;
46681;PMS5003;34101;53.430;-2.224;2024-03-08T12:44:07;40;37;
46681;PMS5003;34101;53.430;-2.224;2024-03-08T12:46:34;50;44;
46681;PMS5003;34101;53.430;-2.224;2024-03-08T12:49:01;46;44;
46681;PMS5003;34101;53.430;-2.224;2024-03-08T12:51:29;44;41;
46681;PMS5003;34101;53.430;-2.224;2024-03-08T12:53:57;47;44;
46681;PMS5003;34101;53.430;-2.224;2024-03-08T12:56:29;40;40;
46681;PMS5003;34101;53.430;-2.224;2024-03-08T12:58:57;41;39;
46681;PMS5003;34101;53.430;-2.224;2024-03-08T13:01:25;46;44;
46681;PMS5003;34101;53.430;-2.224;2024-03-08T13:03:54;48;40;
46681;PMS5003;34101;53.430;-2.224;2024-03-08T13:06:22;46;43;
46681;PMS5003;34101;53.430;-2.224;2024-03-08T13:08:50;45;42;
46681;PMS5003;34101;53.430;-2.224;2024-03-08T13:11:18;47;45;
46681;PMS5003;34101;53.430;-2.224;2024-03-08T13:13:46;41;41;
46681;PMS5003;34101;53.430;-2.224;2024-03-08T13:16:14;41;37;
46681;PMS5003;34101;53.430;-2.224;2024-03-08T13:18:41;42;38;
46681;PMS5003;34101;53.430;-2.224;2024-03-08T13:21:09;41;39;
46681;PMS5003;34101;53.430;-2.224;2024-03-08T13:23:37;44;37;
46681;PMS5003;34101;53.430;-2.224;2024-03-08T13:26:05;45;44;
46681;PMS5003;34101;53.430;-2.224;2024-03-08T13:28:33;40;37;
46681;PMS5003;34101;53.430;-2.224;2024-03-08T13:31:01;37;35;
46681;PMS5003;34101;53.430;-2.224;2024-03-08T13:33:29;43;43;
46681;PMS5003;34101;53.430;-2.224;2024-03-08T13:35:56;39;37;
46681;PMS5003;34101;53.430;-2.224;2024-03-08T13:38:24;44;42;
46681;PMS5003;34101;53.430;-2.224;2024-03-08T13:40:51;46;43;
46681;PMS5003;34101;53.430;-2.224;2024-03-08T13:43:19;40;39;
46681;PMS5003;34101;53.430;-2.224;2024-03-08T13:45:46;40;40;
46681;PMS5003;34101;53.430;-2.224;2024-03-08T13:48:15;36;36;
46681;PMS5003;34101;53.430;-2.224;2024-03-08T13:50:43;43;36;
46681;PMS5003;34101;53.430;-2.224;2024-03-08T13:53:10;43;37;
46681;PMS5003;34101;53.430;-2.224;2024-03-08T13:55:38;48;43;
46681;PMS5003;34101;53.430;-2.224;2024-03-08T13:58:05;42;41;
46681;PMS5003;34101;53.430;-2.224;2024-03-08T14:00:36;40;40;
46681;PMS5003;34101;53.430;-2.224;2024-03-08T14:03:04;41;37;
46681;PMS5003;34101;53.430;-2.224;2024-03-08T14:05:32;43;40;
46681;PMS5003;34101;53.430;-2.224;2024-03-08T14:08:00;40;37;
46681;PMS5003;34101;53.430;-2.224;2024-03-08T14:10:28;50;49;
46681;PMS5003;34101;53.430;-2.224;2024-03-08T14:12:55;40;39;
46681;PMS5003;34101;53.430;-2.224;2024-03-08T14:15:22;39;38;
46681;PMS5003;34101;53.430;-2.224;2024-03-08T14:17:53;39;39;
46681;PMS5003;34101;53.430;-2.224;2024-03-08T14:20:22;46;40;
46681;PMS5003;34101;53.430;-2.224;2024-03-08T14:22:50;35;35;
46681;PMS5003;34101;53.430;-2.224;2024-03-08T14:25:17;40;40;
46681;PMS5003;34101;53.430;-2.224;2024-03-08T14:27:45;40;38;
46681;PMS5003;34101;53.430;-2.224;2024-03-08T14:30:13;42;37;
46681;PMS5003;34101;53.430;-2.224;2024-03-08T14:32:41;41;40;
46681;PMS5003;34101;53.430;-2.224;2024-03-08T14:35:09;37;37;
46681;PMS5003;34101;53.430;-2.224;2024-03-08T14:37:36;49;48;
46681;PMS5003;34101;53.430;-2.224;2024-03-08T14:40:04;40;40;
46681;PMS5003;34101;53.430;-2.224;2024-03-08T14:42:33;39;38;
46681;PMS5003;34101;53.430;-2.224;2024-03-08T14:45:01;55;50;
46681;PMS5003;34101;53.430;-2.224;2024-03-08T14:47:28;47;41;
46681;PMS5003;34101;53.430;-2.224;2024-03-08T14:49:55;48;45;
46681;PMS5003;34101;53.430;-2.224;2024-03-08T14:52:22;43;42;
46681;PMS5003;34101;53.430;-2.224;2024-03-08T14:54:50;42;40;
46681;PMS5003;34101;53.430;-2.224;2024-03-08T14:57:17;45;45;
46681;PMS5003;34101;53.430;-2.224;2024-03-08T14:59:45;39;38;
46681;PMS5003;34101;53.430;-2.224;2024-03-08T15:02:12;48;43;
46681;PMS5003;34101;53.430;-2.224;2024-03-08T15:04:40;46;41;
46681;PMS5003;34101;53.430;-2.224;2024-03-08T15:07:07;40;38;
46681;PMS5003;34101;53.430;-2.224;2024-03-08T15:09:35;37;37;
46681;PMS5003;34101;53.430;-2.224;2024-03-08T15:12:03;38;37;
46681;PMS5003;34101;53.430;-2.224;2024-03-08T15:14:31;44;42;
46681;PMS5003;34101;53.430;-2.224;2024-03-08T15:16:59;45;41;
46681;PMS5003;34101;53.430;-2.224;2024-03-08T15:19:26;46;43;
46681;PMS5003;34101;53.430;-2.224;2024-03-08T15:21:54;53;45;
46681;PMS5003;34101;53.430;-2.224;2024-03-08T15:24:21;41;40;
46681;PMS5003;34101;53.430;-2.224;2024-03-08T15:26:49;39;39;
46681;PMS5003;34101;53.430;-2.224;2024-03-08T15:29:17;37;36;
46681;PMS5003;34101;53.430;-2.224;2024-03-08T15:31:44;36;36;
46681;PMS5003;34101;53.430;-2.224;2024-03-08T15:34:12;45;41;
46681;PMS5003;34101;53.430;-2.224;2024-03-08T15:36:39;47;41;
46681;PMS5003;34101;53.430;-2.224;2024-03-08T15:39:07;39;37;
46681;PMS5003;34101;53.430;-2.224;2024-03-08T15:41:35;47;41;
46681;PMS5003;34101;53.430;-2.224;2024-03-08T15:44:03;43;41;
46681;PMS5003;34101;53.430;-2.224;2024-03-08T15:46:30;49;44;
46681;PMS5003;34101;53.430;-2.224;2024-03-08T15:48:58;45;43;
46681;PMS5003;34101;53.430;-2.224;2024-03-08T15:51:26;49;45;
46681;PMS5003;34101;53.430;-2.224;2024-03-08T15:53:54;42;42;
46681;PMS5003;34101;53.430;-2.224;2024-03-08T15:56:21;40;39;
46681;PMS5003;34101;53.430;-2.224;2024-03-08T15:58:49;48;43;
46681;PMS5003;34101;53.430;-2.224;2024-03-08T16:01:17;43;43;
46681;PMS5003;34101;53.430;-2.224;2024-03-08T16:03:45;45;42;
46681;PMS5003;34101;53.430;-2.224;2024-03-08T16:06:12;42;41;